This is the latest recevied weather packets stored in our database for station/object KC4LZN. If no packets are shown the sender has not sent any weather packets the latest 10 day(s).
| Time | Temp. | Humidity | Pressure | Rain* | Wind** | Luminosity | Snow |
|---|---|---|---|---|---|---|---|
| 1777161453 | 22.78° C | 79% | 1010.9 hPa | 0 mm | - | 3 W/m² | - |
| 1777161148 | 22.78° C | 78% | 1010.8 hPa | 0 mm | - | 5 W/m² | - |
| 1777160845 | 23.33° C | 77% | 1010.9 hPa | 0 mm | - | 7 W/m² | - |
| 1777160540 | 23.89° C | 76% | 1010.6 hPa | 0 mm | - | 10 W/m² | - |
| 1777160237 | 23.89° C | 74% | 1010.6 hPa | 0 mm | - | 12 W/m² | - |
| 1777159933 | 23.89° C | 73% | 1010.5 hPa | 0 mm | - | 13 W/m² | - |
| 1777159629 | 24.44° C | 74% | 1010.7 hPa | 0 mm | - | 16 W/m² | - |
| 1777159325 | 24.44° C | 74% | 1010.4 hPa | 0 mm | - | 21 W/m² | - |
| 1777159021 | 25° C | 74% | 1010.5 hPa | 0 mm | - | 31 W/m² | - |
| 1777158716 | 25° C | 74% | 1010.5 hPa | 0 mm | - | 46 W/m² | - |
| 1777158412 | 25.56° C | 73% | 1010.5 hPa | 0 mm | - | 80 W/m² | - |
| 1777158107 | 25.56° C | 73% | 1010.4 hPa | 0 mm | - | 100 W/m² | - |
| 1777157803 | 25.56° C | 71% | 1010.5 hPa | 0 mm | - | 78 W/m² | - |
| 1777157499 | 26.11° C | 67% | 1010.6 hPa | 0 mm | - | 66 W/m² | - |
| 1777157196 | 26.11° C | 66% | 1010.4 hPa | 0 mm | - | 80 W/m² | - |
| 1777156895 | 26.67° C | 66% | 1010.4 hPa | 0 mm | - | 89 W/m² | - |
| 1777156590 | 26.67° C | 66% | 1010.4 hPa | 0 mm | - | 141 W/m² | - |
| 1777156287 | 26.11° C | 66% | 1010.5 hPa | 0 mm | - | 176 W/m² | - |
| 1777155984 | 25.56° C | 68% | 1010.4 hPa | 0 mm | - | 157 W/m² | - |
| 1777155681 | 26.11° C | 65% | 1010.3 hPa | 0 mm | - | 112 W/m² | - |
| 1777155376 | 25.56° C | 67% | 1010.4 hPa | 0 mm | - | 211 W/m² | - |
| 1777155073 | 25.56° C | 68% | 1010.4 hPa | 0 mm | - | 92 W/m² | - |
| 1777154771 | 25.56° C | 68% | 1010.6 hPa | 0 mm | - | 216 W/m² | - |
| 1777154467 | 26.11° C | 67% | 1010.6 hPa | 0 mm | - | 78 W/m² | - |
| 1777154162 | 27.22° C | 62% | 1010.7 hPa | 0 mm | - | 105 W/m² | - |
* Rain latest hour (hover to see other rain measurements)
** Current wind speed in m/s (hover to see current wind gust speed)